createdAt,value
2018-01-25T00:00:04.162Z,0.00
2018-01-25T00:01:04.100Z,0.00
2018-01-25T00:02:04.075Z,0.00
2018-01-25T00:03:04.014Z,0.00
2018-01-25T00:04:03.985Z,0.00
2018-01-25T00:05:03.974Z,0.00
2018-01-25T00:06:03.899Z,0.00
2018-01-25T00:07:03.880Z,0.00
2018-01-25T00:08:03.836Z,0.00
2018-01-25T00:09:03.781Z,0.00
2018-01-25T00:10:03.743Z,0.00
2018-01-25T00:11:03.695Z,0.00
2018-01-25T00:12:03.656Z,0.00
2018-01-25T00:13:03.607Z,0.00
2018-01-25T00:14:03.574Z,0.00
2018-01-25T00:15:03.569Z,0.00
2018-01-25T00:16:04.446Z,0.00
2018-01-25T00:17:03.454Z,0.00
2018-01-25T00:18:03.418Z,0.00
2018-01-25T00:19:03.387Z,0.00
2018-01-25T00:20:03.345Z,0.00
2018-01-25T00:21:03.288Z,0.00
2018-01-25T00:22:03.249Z,0.00
2018-01-25T00:23:03.219Z,0.00
2018-01-25T00:24:03.173Z,0.00
2018-01-25T00:25:03.255Z,0.00
2018-01-25T00:26:03.104Z,0.00
2018-01-25T00:27:03.046Z,0.00
2018-01-25T00:28:03.010Z,0.00
2018-01-25T00:29:03.011Z,0.00
2018-01-25T00:30:02.932Z,0.00
2018-01-25T00:31:02.939Z,0.00
2018-01-25T00:32:02.840Z,0.00
2018-01-25T00:33:02.906Z,0.00
2018-01-25T00:34:02.783Z,0.00
2018-01-25T00:35:02.722Z,0.00
2018-01-25T00:36:02.687Z,0.00
2018-01-25T00:37:02.634Z,0.00
2018-01-25T00:38:02.593Z,0.00
2018-01-25T00:39:02.566Z,0.00
2018-01-25T00:40:02.509Z,0.00
2018-01-25T00:41:02.534Z,0.00
2018-01-25T00:42:02.431Z,0.00
2018-01-25T00:43:02.389Z,0.00
2018-01-25T00:44:02.353Z,0.00
2018-01-25T00:45:02.319Z,0.00
2018-01-25T00:46:02.257Z,0.00
2018-01-25T00:47:02.240Z,0.00
2018-01-25T00:48:02.201Z,0.00
2018-01-25T00:49:02.135Z,0.00
2018-01-25T00:50:02.106Z,0.00
2018-01-25T00:51:02.065Z,0.00
2018-01-25T00:52:02.018Z,0.00
2018-01-25T00:53:01.986Z,0.00
2018-01-25T00:54:01.948Z,0.00
2018-01-25T00:55:01.915Z,0.00
2018-01-25T00:56:01.867Z,0.00
2018-01-25T00:57:01.977Z,0.00
2018-01-25T00:58:01.779Z,0.00
2018-01-25T00:59:01.737Z,0.00
2018-01-25T01:00:01.687Z,0.00
2018-01-25T01:01:01.664Z,0.00
2018-01-25T01:02:01.607Z,0.00
2018-01-25T01:03:01.566Z,0.00
2018-01-25T01:04:01.553Z,0.00
2018-01-25T01:05:01.486Z,0.00
2018-01-25T01:06:01.445Z,0.00
2018-01-25T01:07:01.417Z,0.00
2018-01-25T01:08:01.370Z,0.00
2018-01-25T01:09:01.363Z,0.00
2018-01-25T01:10:01.275Z,0.00
2018-01-25T01:11:01.241Z,0.00
2018-01-25T01:12:01.195Z,0.00
2018-01-25T01:13:01.159Z,0.00
2018-01-25T01:14:01.121Z,0.00
2018-01-25T01:15:01.071Z,0.00
2018-01-25T01:16:01.038Z,0.00
2018-01-25T01:17:00.997Z,0.00
2018-01-25T01:18:00.952Z,0.00
2018-01-25T01:19:00.906Z,0.00
2018-01-25T01:20:00.881Z,0.00
2018-01-25T01:21:00.826Z,0.00
2018-01-25T01:22:00.782Z,0.00
2018-01-25T01:23:00.744Z,0.00
2018-01-25T01:24:00.705Z,0.00
2018-01-25T01:25:00.664Z,0.00
2018-01-25T01:26:00.621Z,0.00
2018-01-25T01:27:00.598Z,0.00
2018-01-25T01:28:00.551Z,0.00
2018-01-25T01:29:00.503Z,0.00
2018-01-25T01:30:00.462Z,0.00
2018-01-25T01:31:00.415Z,0.00
2018-01-25T01:32:00.369Z,0.00
2018-01-25T01:33:00.334Z,0.00
2018-01-25T01:34:00.284Z,0.00
2018-01-25T01:35:00.253Z,0.00
2018-01-25T01:36:00.214Z,0.00
2018-01-25T01:37:00.202Z,0.00
2018-01-25T01:38:00.153Z,0.00
2018-01-25T01:39:00.080Z,0.00
2018-01-25T01:40:00.059Z,0.00
2018-01-25T01:41:00.004Z,0.00
2018-01-25T01:41:59.968Z,0.00
2018-01-25T01:42:59.931Z,0.00
2018-01-25T01:43:59.873Z,0.00
2018-01-25T01:44:59.854Z,0.00
2018-01-25T01:45:59.790Z,0.00
2018-01-25T01:46:59.753Z,0.00
2018-01-25T01:47:59.706Z,0.00
2018-01-25T01:48:59.672Z,0.00
2018-01-25T01:49:59.667Z,0.00
2018-01-25T01:50:59.600Z,0.00
2018-01-25T01:51:59.563Z,0.00
2018-01-25T01:52:59.513Z,0.00
2018-01-25T01:53:59.465Z,0.00
2018-01-25T01:54:59.436Z,0.00
2018-01-25T01:55:59.392Z,0.00
2018-01-25T01:56:59.368Z,0.00
2018-01-25T01:57:59.302Z,0.00
2018-01-25T01:58:59.283Z,0.00
2018-01-25T01:59:59.235Z,0.00
2018-01-25T02:00:59.180Z,0.00
2018-01-25T02:01:59.178Z,0.00
2018-01-25T02:02:59.104Z,0.00
2018-01-25T02:03:59.054Z,0.00
2018-01-25T02:04:59.051Z,0.00
2018-01-25T02:05:58.973Z,0.00
2018-01-25T02:06:58.935Z,0.00
2018-01-25T02:07:58.884Z,0.00
2018-01-25T02:08:58.857Z,0.00
2018-01-25T02:09:58.806Z,0.00
2018-01-25T02:10:58.817Z,0.00
2018-01-25T02:11:58.725Z,0.00
2018-01-25T02:12:58.687Z,0.00
2018-01-25T02:13:58.642Z,0.00
2018-01-25T02:15:58.565Z,0.00
2018-01-25T02:16:58.517Z,0.00
2018-01-25T02:17:58.495Z,0.00
2018-01-25T02:18:58.445Z,0.00
2018-01-25T02:19:58.419Z,0.00
2018-01-25T02:20:58.347Z,0.00
2018-01-25T02:21:58.306Z,0.00
2018-01-25T02:22:58.285Z,0.00
2018-01-25T02:23:58.235Z,0.00
2018-01-25T02:24:58.203Z,0.00
2018-01-25T02:25:58.145Z,0.00
2018-01-25T02:26:58.114Z,0.00
2018-01-25T02:27:58.067Z,0.00
2018-01-25T02:28:58.033Z,0.00
2018-01-25T02:29:58.008Z,0.00
2018-01-25T02:30:57.978Z,0.00
2018-01-25T02:31:57.890Z,0.00
2018-01-25T02:32:57.854Z,0.00
2018-01-25T02:33:57.812Z,0.00
2018-01-25T02:34:57.770Z,0.00
2018-01-25T02:35:57.767Z,0.00
2018-01-25T02:36:57.712Z,0.00
2018-01-25T02:37:57.654Z,0.00
2018-01-25T02:38:57.605Z,0.00
2018-01-25T02:39:57.595Z,0.00
2018-01-25T02:40:57.535Z,0.00
2018-01-25T02:41:57.485Z,0.00
2018-01-25T02:42:57.451Z,0.00
2018-01-25T02:43:57.416Z,0.00
2018-01-25T02:44:57.366Z,0.00
2018-01-25T02:45:57.330Z,0.00
2018-01-25T02:46:57.279Z,0.00
2018-01-25T02:47:57.250Z,0.00
2018-01-25T02:48:57.206Z,0.00
2018-01-25T02:49:57.154Z,0.00
2018-01-25T02:50:57.112Z,0.00
2018-01-25T02:51:57.096Z,0.00
2018-01-25T02:52:57.045Z,0.00
2018-01-25T02:53:57.004Z,0.00
2018-01-25T02:54:56.946Z,0.00
2018-01-25T02:55:56.942Z,0.00
2018-01-25T02:56:56.863Z,0.00
2018-01-25T02:57:56.854Z,0.00
2018-01-25T02:58:56.779Z,0.00
2018-01-25T02:59:56.778Z,0.00
2018-01-25T03:00:56.716Z,0.00
2018-01-25T03:01:56.662Z,0.00
2018-01-25T03:02:58.571Z,0.00
2018-01-25T03:03:56.575Z,0.00
2018-01-25T03:04:56.556Z,0.00
2018-01-25T03:05:56.506Z,0.00
2018-01-25T03:06:56.457Z,0.00
2018-01-25T03:07:56.409Z,0.00
2018-01-25T03:08:56.376Z,0.00
2018-01-25T03:09:56.328Z,0.00
2018-01-25T03:10:56.305Z,0.00
2018-01-25T03:11:56.243Z,0.00
2018-01-25T03:12:56.189Z,0.00
2018-01-25T03:13:56.157Z,0.00
2018-01-25T03:14:56.120Z,0.00
2018-01-25T03:15:56.126Z,0.00
2018-01-25T03:16:56.034Z,0.00
2018-01-25T03:17:55.995Z,0.00
2018-01-25T03:18:55.966Z,0.00
2018-01-25T03:19:55.933Z,0.00
2018-01-25T03:20:55.858Z,0.00
2018-01-25T03:21:55.822Z,0.00
2018-01-25T03:22:55.872Z,0.00
2018-01-25T03:23:55.776Z,0.00
2018-01-25T03:24:55.695Z,0.00
2018-01-25T03:25:55.669Z,0.00
2018-01-25T03:26:55.617Z,0.00
2018-01-25T03:27:55.599Z,0.00
2018-01-25T03:28:55.535Z,0.00
2018-01-25T03:29:55.486Z,0.00
2018-01-25T03:30:55.445Z,0.00
2018-01-25T03:31:55.408Z,0.00
2018-01-25T03:32:55.382Z,0.00
2018-01-25T03:33:55.326Z,0.00
2018-01-25T03:34:55.297Z,0.00
2018-01-25T03:35:55.273Z,0.00
2018-01-25T03:36:55.202Z,0.00
2018-01-25T03:37:55.269Z,0.00
2018-01-25T03:38:55.104Z,0.00
2018-01-25T03:39:55.073Z,0.00
2018-01-25T03:40:55.035Z,0.00
2018-01-25T03:41:54.987Z,0.00
2018-01-25T03:42:54.945Z,0.00
2018-01-25T03:43:54.901Z,0.00
2018-01-25T03:44:54.856Z,0.00
2018-01-25T03:45:54.837Z,0.00
2018-01-25T03:46:54.820Z,0.00
2018-01-25T03:47:54.760Z,0.00
2018-01-25T03:48:54.689Z,0.00
2018-01-25T03:49:54.704Z,0.00
2018-01-25T03:50:54.613Z,0.00
2018-01-25T03:51:54.563Z,0.00
2018-01-25T03:52:54.535Z,0.00
2018-01-25T03:53:54.508Z,0.00
2018-01-25T03:54:54.447Z,0.00
2018-01-25T03:55:54.416Z,0.00
2018-01-25T03:56:54.381Z,0.00
2018-01-25T03:57:54.338Z,0.00
2018-01-25T03:58:54.275Z,0.00
2018-01-25T03:59:54.232Z,0.00
2018-01-25T04:00:54.202Z,0.00
2018-01-25T04:01:54.147Z,0.00
2018-01-25T04:02:54.114Z,0.00
2018-01-25T04:03:54.108Z,0.00
2018-01-25T04:04:54.030Z,0.00
2018-01-25T04:05:53.986Z,0.00
2018-01-25T04:06:53.945Z,0.00
2018-01-25T04:07:53.979Z,0.00
2018-01-25T04:08:53.861Z,0.00
2018-01-25T04:09:53.838Z,0.00
2018-01-25T04:10:53.790Z,0.00
2018-01-25T04:11:53.739Z,0.00
2018-01-25T04:12:53.742Z,0.00
2018-01-25T04:13:53.762Z,0.00
2018-01-25T04:14:53.607Z,0.00
2018-01-25T04:15:53.591Z,0.00
2018-01-25T04:16:53.546Z,0.00
2018-01-25T04:17:53.498Z,0.00
2018-01-25T04:18:53.493Z,0.00
2018-01-25T04:19:53.511Z,0.00
2018-01-25T04:20:53.357Z,0.00
2018-01-25T04:21:53.330Z,0.00
2018-01-25T04:22:53.286Z,0.00
2018-01-25T04:23:53.231Z,0.00
2018-01-25T04:24:53.213Z,0.00
2018-01-25T04:25:53.371Z,0.00
2018-01-25T04:26:53.133Z,0.00
2018-01-25T04:27:53.080Z,0.00
2018-01-25T04:28:53.045Z,0.00
2018-01-25T04:29:53.011Z,0.00
2018-01-25T04:30:53.031Z,0.00
2018-01-25T04:31:52.927Z,0.00
2018-01-25T04:32:52.962Z,0.00
2018-01-25T04:33:52.826Z,0.00
2018-01-25T04:34:52.782Z,0.00
2018-01-25T04:35:52.780Z,0.00
2018-01-25T04:36:52.714Z,0.00
2018-01-25T04:37:52.653Z,0.00
2018-01-25T04:38:52.607Z,0.00
2018-01-25T04:39:52.567Z,0.00
2018-01-25T04:40:52.544Z,0.00
2018-01-25T04:41:52.490Z,0.00
2018-01-25T04:42:52.491Z,0.00
2018-01-25T04:43:52.523Z,0.00
2018-01-25T04:44:52.378Z,0.00
2018-01-25T04:45:52.318Z,0.00
2018-01-25T04:46:52.285Z,0.00
2018-01-25T04:47:52.245Z,0.00
2018-01-25T04:48:52.199Z,0.00
2018-01-25T04:49:52.157Z,0.00
2018-01-25T04:50:52.142Z,0.00
2018-01-25T04:51:52.148Z,0.00
2018-01-25T04:52:52.026Z,0.00
2018-01-25T04:53:51.986Z,0.00
2018-01-25T04:54:51.966Z,0.00
2018-01-25T04:55:51.925Z,0.00
2018-01-25T04:56:51.868Z,0.00
2018-01-25T04:57:51.850Z,0.00
2018-01-25T04:58:51.790Z,0.00
2018-01-25T04:59:51.773Z,0.00
2018-01-25T05:00:51.702Z,0.00
2018-01-25T05:01:51.675Z,0.00
2018-01-25T05:02:51.642Z,0.00
2018-01-25T05:03:51.579Z,0.00
2018-01-25T05:04:51.557Z,0.00
2018-01-25T05:05:51.494Z,0.00
2018-01-25T05:06:51.459Z,0.00
2018-01-25T05:07:51.410Z,0.00
2018-01-25T05:08:51.381Z,0.00
2018-01-25T05:09:51.339Z,0.00
2018-01-25T05:10:51.289Z,0.00
2018-01-25T05:11:51.251Z,0.00
2018-01-25T05:12:51.238Z,0.00
2018-01-25T05:13:51.162Z,0.00
2018-01-25T05:14:51.144Z,0.00
2018-01-25T05:15:51.095Z,0.00
2018-01-25T05:16:51.041Z,0.00
2018-01-25T05:17:50.998Z,0.00
2018-01-25T05:18:50.968Z,0.00
2018-01-25T05:19:50.931Z,0.00
2018-01-25T05:20:50.882Z,0.00
2018-01-25T05:21:50.898Z,0.00
2018-01-25T05:22:50.816Z,0.00
2018-01-25T05:23:50.765Z,0.00
2018-01-25T05:24:50.798Z,0.00
2018-01-25T05:25:50.817Z,0.00
2018-01-25T05:26:50.637Z,0.00
2018-01-25T05:27:50.593Z,0.00
2018-01-25T05:28:50.565Z,0.00
2018-01-25T05:29:50.536Z,0.00
2018-01-25T05:30:50.476Z,0.00
2018-01-25T05:31:50.429Z,0.00
2018-01-25T05:32:50.406Z,0.00
2018-01-25T05:33:50.343Z,0.00
2018-01-25T05:34:50.317Z,0.00
2018-01-25T05:35:50.268Z,0.00
2018-01-25T05:36:50.261Z,0.00
2018-01-25T05:37:50.217Z,0.00
2018-01-25T05:38:50.143Z,0.00
2018-01-25T05:39:50.114Z,0.00
2018-01-25T05:40:50.058Z,0.00
2018-01-25T05:41:50.021Z,0.00
2018-01-25T05:42:50.520Z,0.00
2018-01-25T05:43:49.964Z,0.00
2018-01-25T05:44:49.917Z,0.00
2018-01-25T05:45:49.843Z,0.00
2018-01-25T05:46:49.816Z,0.00
2018-01-25T05:47:49.773Z,0.00
2018-01-25T05:48:49.727Z,0.00
2018-01-25T05:49:49.711Z,0.00
2018-01-25T05:50:49.645Z,0.00
2018-01-25T05:51:49.644Z,0.00
2018-01-25T05:52:49.569Z,0.00
2018-01-25T05:53:49.526Z,0.00
2018-01-25T05:54:49.478Z,0.00
2018-01-25T05:55:49.450Z,0.00
2018-01-25T05:56:49.397Z,0.00
2018-01-25T05:57:49.389Z,0.00
2018-01-25T05:58:49.312Z,0.00
2018-01-25T05:59:49.284Z,0.00
2018-01-25T06:00:49.241Z,0.00
2018-01-25T06:01:49.226Z,0.00
2018-01-25T06:02:49.142Z,0.00
2018-01-25T06:03:49.136Z,0.00
2018-01-25T06:04:49.149Z,0.00
2018-01-25T06:05:49.034Z,0.00
2018-01-25T06:06:49.007Z,0.00
2018-01-25T06:07:48.964Z,0.00
2018-01-25T06:08:48.904Z,0.00
2018-01-25T06:09:48.879Z,0.00
2018-01-25T06:10:48.870Z,0.00
2018-01-25T06:11:48.817Z,0.00
2018-01-25T06:12:48.744Z,0.00
2018-01-25T06:13:48.708Z,0.00
2018-01-25T06:14:48.667Z,0.00
2018-01-25T06:15:48.635Z,0.00
2018-01-25T06:16:48.574Z,0.00
2018-01-25T06:17:48.591Z,0.00
2018-01-25T06:18:48.504Z,0.00
2018-01-25T06:19:48.531Z,0.00
2018-01-25T06:20:48.437Z,0.00
2018-01-25T06:21:48.368Z,0.00
2018-01-25T06:22:48.354Z,0.00
2018-01-25T06:23:48.301Z,0.00
2018-01-25T06:24:48.250Z,0.00
2018-01-25T06:25:48.347Z,0.00
2018-01-25T06:26:48.160Z,4.00
2018-01-25T06:27:48.277Z,4.00
2018-01-25T06:28:48.117Z,4.00
2018-01-25T06:29:48.048Z,4.00
2018-01-25T06:30:48.065Z,4.00
2018-01-25T06:31:47.963Z,4.00
2018-01-25T06:32:47.916Z,8.00
2018-01-25T06:33:47.871Z,8.00
2018-01-25T06:34:48.076Z,12.00
2018-01-25T06:35:47.796Z,12.00
2018-01-25T06:36:47.792Z,16.00
2018-01-25T06:37:47.713Z,20.00
2018-01-25T06:38:47.683Z,24.00
2018-01-25T06:39:47.651Z,24.00
2018-01-25T06:40:47.626Z,28.00
2018-01-25T06:41:47.546Z,32.00
2018-01-25T06:42:47.510Z,36.00
2018-01-25T06:43:47.479Z,40.00
2018-01-25T06:44:47.421Z,44.00
2018-01-25T06:45:47.420Z,56.00
2018-01-25T06:46:47.336Z,60.00
2018-01-25T06:47:47.304Z,72.00
2018-01-25T06:48:47.268Z,88.00
2018-01-25T06:49:47.208Z,100.00
2018-01-25T06:50:47.194Z,108.00
2018-01-25T06:51:47.134Z,116.00
2018-01-25T06:52:47.104Z,124.00
2018-01-25T06:53:47.060Z,140.00
2018-01-25T06:54:47.009Z,152.00
2018-01-25T06:55:46.965Z,176.00
2018-01-25T06:56:46.920Z,192.00
2018-01-25T06:57:46.878Z,216.00
2018-01-25T06:58:46.847Z,236.00
2018-01-25T06:59:46.813Z,260.00
2018-01-25T07:00:46.757Z,280.00
2018-01-25T07:01:46.716Z,308.00
2018-01-25T07:02:46.692Z,336.00
2018-01-25T07:03:46.640Z,360.00
2018-01-25T07:04:46.620Z,380.00
2018-01-25T07:05:46.640Z,396.00
2018-01-25T07:06:46.522Z,420.00
2018-01-25T07:07:46.495Z,444.00
2018-01-25T07:08:46.454Z,504.00
2018-01-25T07:09:46.472Z,556.00
2018-01-25T07:10:46.357Z,596.00
2018-01-25T07:11:46.312Z,648.00
2018-01-25T07:12:46.266Z,688.00
2018-01-25T07:13:46.236Z,744.00
2018-01-25T07:14:46.185Z,796.00
2018-01-25T07:15:46.157Z,848.00
2018-01-25T07:16:46.104Z,896.00
2018-01-25T07:17:46.062Z,976.00
2018-01-25T07:18:46.021Z,1076.00
2018-01-25T07:19:46.003Z,1164.00
2018-01-25T07:20:45.933Z,1252.00
2018-01-25T07:21:45.920Z,1348.00
2018-01-25T07:22:45.851Z,1448.00
2018-01-25T07:23:45.832Z,1536.00
2018-01-25T07:24:45.801Z,1616.00
2018-01-25T07:25:45.731Z,1724.00
2018-01-25T07:26:45.691Z,1836.00
2018-01-25T07:27:45.648Z,1916.00
2018-01-25T07:28:45.606Z,1968.00
2018-01-25T07:29:45.567Z,1996.00
2018-01-25T07:30:45.554Z,2112.00
2018-01-25T07:31:45.483Z,2208.00
2018-01-25T07:32:45.453Z,2312.00
2018-01-25T07:33:45.419Z,2380.00
2018-01-25T07:34:45.369Z,2392.00
2018-01-25T07:35:45.327Z,2484.00
2018-01-25T07:36:45.289Z,2612.00
2018-01-25T07:37:45.251Z,2792.00
2018-01-25T07:38:45.201Z,2888.00
2018-01-25T07:39:45.163Z,2984.00
2018-01-25T07:40:45.132Z,3084.00
2018-01-25T07:41:45.073Z,3152.00
2018-01-25T07:42:45.034Z,3232.00
2018-01-25T07:43:45.042Z,3356.00
2018-01-25T07:44:44.957Z,3420.00
2018-01-25T07:45:44.923Z,3556.00
2018-01-25T07:46:44.863Z,3656.00
2018-01-25T07:47:44.900Z,3732.00
2018-01-25T07:48:44.788Z,3856.00
2018-01-25T07:49:44.767Z,4004.00
2018-01-25T07:50:44.717Z,4088.00
2018-01-25T07:51:44.687Z,4208.00
2018-01-25T07:52:44.633Z,4380.00
2018-01-25T07:53:44.583Z,4472.00
2018-01-25T07:54:44.552Z,4556.00
2018-01-25T07:55:44.516Z,4756.00
2018-01-25T07:56:44.461Z,5000.00
2018-01-25T07:57:44.419Z,5180.00
2018-01-25T07:58:44.396Z,5384.00
2018-01-25T07:59:44.386Z,5536.00
2018-01-25T08:00:44.342Z,5612.00
2018-01-25T08:01:44.271Z,5700.00
2018-01-25T08:02:44.217Z,5828.00
2018-01-25T08:03:44.278Z,6072.00
2018-01-25T08:04:44.175Z,6260.00
2018-01-25T08:05:44.092Z,6492.00
2018-01-25T08:06:44.081Z,6740.00
2018-01-25T08:07:44.029Z,6896.00
2018-01-25T08:08:44.042Z,6964.00
2018-01-25T08:09:43.930Z,7244.00
2018-01-25T08:10:43.897Z,7452.00
2018-01-25T08:11:43.855Z,7580.00
2018-01-25T08:12:43.815Z,7608.00
2018-01-25T08:13:43.856Z,7492.00
2018-01-25T08:14:43.728Z,7408.00
2018-01-25T08:15:43.690Z,7068.00
2018-01-25T08:16:43.649Z,6796.00
2018-01-25T08:17:43.615Z,6628.00
2018-01-25T08:18:43.576Z,6168.00
2018-01-25T08:19:43.531Z,5940.00
2018-01-25T08:20:43.516Z,5956.00
2018-01-25T08:21:43.448Z,5756.00
2018-01-25T08:22:43.415Z,5916.00
2018-01-25T08:23:43.371Z,6100.00
2018-01-25T08:24:43.328Z,6236.00
2018-01-25T08:25:43.287Z,6144.00
2018-01-25T08:26:43.255Z,6336.00
2018-01-25T08:27:43.208Z,6376.00
2018-01-25T08:28:43.169Z,6248.00
2018-01-25T08:29:43.145Z,6128.00
2018-01-25T08:30:43.085Z,6052.00
2018-01-25T08:31:43.047Z,5948.00
2018-01-25T08:32:43.007Z,5884.00
2018-01-25T08:33:42.964Z,6008.00
2018-01-25T08:34:42.921Z,5776.00
2018-01-25T08:35:42.880Z,5516.00
2018-01-25T08:36:42.904Z,5172.00
2018-01-25T08:37:42.819Z,5060.00
2018-01-25T08:38:42.798Z,5056.00
2018-01-25T08:39:42.728Z,5012.00
2018-01-25T08:40:42.681Z,5080.00
2018-01-25T08:41:42.648Z,5148.00
2018-01-25T08:42:42.609Z,5204.00
2018-01-25T08:43:42.564Z,5304.00
2018-01-25T08:44:42.522Z,5164.00
2018-01-25T08:45:42.591Z,5048.00
2018-01-25T08:46:42.440Z,5100.00
2018-01-25T08:47:42.410Z,5192.00
2018-01-25T08:48:42.354Z,5148.00
2018-01-25T08:49:42.327Z,5068.00
2018-01-25T08:50:42.286Z,5332.00
2018-01-25T08:51:42.244Z,5432.00
2018-01-25T08:52:42.202Z,5340.00
2018-01-25T08:53:42.157Z,5388.00
2018-01-25T08:54:42.140Z,5548.00
2018-01-25T08:55:42.111Z,5588.00
2018-01-25T08:56:42.046Z,5584.00
2018-01-25T08:57:42.019Z,5656.00
2018-01-25T08:58:41.971Z,5552.00
2018-01-25T08:59:41.927Z,5760.00
2018-01-25T09:00:41.878Z,5756.00
2018-01-25T09:01:41.852Z,5896.00
2018-01-25T09:02:41.798Z,6052.00
2018-01-25T09:03:41.762Z,6308.00
2018-01-25T09:04:41.729Z,6452.00
2018-01-25T09:05:41.783Z,6360.00
2018-01-25T09:06:41.648Z,6228.00
2018-01-25T09:07:41.627Z,6504.00
2018-01-25T09:08:41.805Z,6720.00
2018-01-25T09:09:41.525Z,6676.00
2018-01-25T09:10:41.494Z,6772.00
2018-01-25T09:11:41.446Z,6652.00
2018-01-25T09:12:41.405Z,6816.00
2018-01-25T09:13:41.361Z,6972.00
2018-01-25T09:14:41.324Z,6872.00
2018-01-25T09:15:41.297Z,6420.00
2018-01-25T09:16:41.267Z,6248.00
2018-01-25T09:17:41.225Z,6132.00
2018-01-25T09:18:41.165Z,6284.00
2018-01-25T09:19:41.146Z,6428.00
2018-01-25T09:20:41.094Z,6468.00
2018-01-25T09:21:41.061Z,6260.00
2018-01-25T09:22:41.030Z,6352.00
2018-01-25T09:23:41.005Z,6660.00
2018-01-25T09:24:40.929Z,6624.00
2018-01-25T09:25:40.935Z,6192.00
2018-01-25T09:26:40.845Z,6116.00
2018-01-25T09:27:40.827Z,5924.00
2018-01-25T09:28:40.795Z,5876.00
2018-01-25T09:29:40.739Z,6192.00
2018-01-25T09:30:40.684Z,6528.00
2018-01-25T09:31:40.649Z,6652.00
2018-01-25T09:32:40.658Z,6956.00
2018-01-25T09:33:40.568Z,7032.00
2018-01-25T09:34:40.535Z,6972.00
2018-01-25T09:35:40.495Z,7060.00
2018-01-25T09:36:40.465Z,7032.00
2018-01-25T09:37:40.435Z,7168.00
2018-01-25T09:38:40.369Z,7488.00
2018-01-25T09:39:40.337Z,7608.00
2018-01-25T09:40:40.306Z,7232.00
2018-01-25T09:41:40.254Z,7288.00
2018-01-25T09:42:40.238Z,7468.00
2018-01-25T09:43:40.188Z,6872.00
2018-01-25T09:44:40.172Z,6528.00
2018-01-25T09:45:40.099Z,6532.00
2018-01-25T09:46:40.065Z,6876.00
2018-01-25T09:47:40.016Z,7016.00
2018-01-25T09:48:40.006Z,7956.00
2018-01-25T09:49:39.952Z,9120.00
2018-01-25T09:50:39.898Z,10212.00
2018-01-25T09:51:39.879Z,10720.00
2018-01-25T09:52:39.825Z,10160.00
2018-01-25T09:53:39.783Z,10524.00
2018-01-25T09:54:39.780Z,10500.00
2018-01-25T09:55:39.773Z,11024.00
2018-01-25T09:56:39.668Z,11272.00
2018-01-25T09:57:39.632Z,12156.00
2018-01-25T09:58:39.583Z,12316.00
2018-01-25T09:59:39.560Z,12364.00
2018-01-25T10:00:39.513Z,12840.00
2018-01-25T10:01:39.477Z,14280.00
2018-01-25T10:02:39.466Z,15924.00
2018-01-25T10:03:39.403Z,16500.00
2018-01-25T10:04:39.359Z,16596.00
2018-01-25T10:05:39.326Z,16260.00
2018-01-25T10:06:39.273Z,15876.00
2018-01-25T10:07:39.237Z,15732.00
2018-01-25T10:08:39.200Z,16316.00
2018-01-25T10:09:39.159Z,17984.00
2018-01-25T10:10:39.142Z,18592.00
2018-01-25T10:11:39.125Z,18656.00
2018-01-25T10:12:39.041Z,18368.00
2018-01-25T10:13:39.001Z,16860.00
2018-01-25T10:14:38.956Z,15864.00
2018-01-25T10:15:38.932Z,16176.00
2018-01-25T10:16:38.891Z,16540.00
2018-01-25T10:17:38.857Z,16092.00
2018-01-25T10:18:38.825Z,14764.00
2018-01-25T10:19:38.780Z,13696.00
2018-01-25T10:20:38.799Z,13332.00
2018-01-25T10:21:38.699Z,12812.00
2018-01-25T10:22:38.661Z,13132.00
2018-01-25T10:23:38.635Z,14744.00
2018-01-25T10:24:38.567Z,15504.00
2018-01-25T10:25:38.535Z,15996.00
2018-01-25T10:26:38.500Z,16680.00
2018-01-25T10:27:38.458Z,17152.00
2018-01-25T10:28:38.468Z,17404.00
2018-01-25T10:29:38.410Z,16780.00
2018-01-25T10:30:38.350Z,16996.00
2018-01-25T10:31:38.306Z,18144.00
2018-01-25T10:32:38.260Z,18688.00
2018-01-25T10:33:38.267Z,18400.00
2018-01-25T10:34:38.184Z,18368.00
2018-01-25T10:35:38.163Z,19616.00
2018-01-25T10:36:38.190Z,19552.00
2018-01-25T10:37:38.117Z,21216.00
2018-01-25T10:38:38.035Z,21504.00
2018-01-25T10:39:38.038Z,21920.00
2018-01-25T10:40:37.972Z,22720.00
2018-01-25T10:41:37.926Z,20192.00
2018-01-25T10:42:37.899Z,18976.00
2018-01-25T10:43:37.849Z,18048.00
2018-01-25T10:44:37.814Z,17632.00
2018-01-25T10:45:37.785Z,17952.00
2018-01-25T10:46:37.743Z,18016.00
2018-01-25T10:47:37.763Z,17096.00
2018-01-25T10:48:37.661Z,15680.00
2018-01-25T10:49:37.731Z,14860.00
2018-01-25T10:50:37.607Z,14696.00
2018-01-25T10:51:37.551Z,14820.00
2018-01-25T10:52:37.542Z,14680.00
2018-01-25T10:53:37.478Z,14128.00
2018-01-25T10:54:37.447Z,14020.00
2018-01-25T10:55:37.412Z,14488.00
2018-01-25T10:56:37.379Z,14836.00
2018-01-25T10:57:37.324Z,15112.00
2018-01-25T10:58:37.289Z,14676.00
2018-01-25T10:59:37.306Z,14468.00
2018-01-25T11:00:37.224Z,14188.00
2018-01-25T11:01:37.207Z,13840.00
2018-01-25T11:02:37.144Z,14348.00
2018-01-25T11:03:37.158Z,15988.00
2018-01-25T11:04:37.070Z,17728.00
2018-01-25T11:05:37.043Z,18560.00
2018-01-25T11:06:36.995Z,18848.00
2018-01-25T11:07:36.953Z,17984.00
2018-01-25T11:08:36.916Z,16768.00
2018-01-25T11:09:36.891Z,16132.00
2018-01-25T11:10:36.852Z,16352.00
2018-01-25T11:11:36.840Z,16900.00
2018-01-25T11:12:36.809Z,17792.00
2018-01-25T11:13:36.721Z,19360.00
2018-01-25T11:14:36.696Z,20832.00
2018-01-25T11:15:36.659Z,22016.00
2018-01-25T11:16:36.634Z,22560.00
2018-01-25T11:17:36.581Z,22080.00
2018-01-25T11:18:36.552Z,21216.00
2018-01-25T11:19:36.508Z,20320.00
2018-01-25T11:20:36.466Z,20160.00
2018-01-25T11:21:36.442Z,19616.00
2018-01-25T11:22:36.406Z,18816.00
2018-01-25T11:23:36.354Z,20768.00
2018-01-25T11:24:36.310Z,21568.00
2018-01-25T11:25:36.282Z,19584.00
2018-01-25T11:26:36.244Z,19552.00
2018-01-25T11:27:36.211Z,21152.00
2018-01-25T11:28:36.163Z,23424.00
2018-01-25T11:29:36.152Z,24736.00
2018-01-25T11:30:36.104Z,26464.00
2018-01-25T11:31:36.050Z,26656.00
2018-01-25T11:32:36.035Z,25920.00
2018-01-25T11:33:35.989Z,26496.00
2018-01-25T11:34:35.957Z,28000.00
2018-01-25T11:35:35.899Z,27584.00
2018-01-25T11:36:35.874Z,25728.00
2018-01-25T11:37:35.827Z,28192.00
2018-01-25T11:38:35.790Z,33184.00
2018-01-25T11:39:35.763Z,43808.00
2018-01-25T11:40:35.740Z,32608.00
2018-01-25T11:41:35.690Z,32256.00
2018-01-25T11:42:35.640Z,28704.00
2018-01-25T11:43:35.624Z,35488.00
2018-01-25T11:44:35.585Z,40128.00
2018-01-25T11:45:35.531Z,45376.00
2018-01-25T11:46:35.510Z,56256.00
2018-01-25T11:47:35.478Z,45024.00
2018-01-25T11:48:35.440Z,49760.00
2018-01-25T11:49:35.403Z,28096.00
2018-01-25T11:50:35.366Z,41408.00
2018-01-25T11:51:35.328Z,30016.00
2018-01-25T11:52:35.305Z,31488.00
2018-01-25T11:53:35.297Z,25344.00
2018-01-25T11:54:35.265Z,24640.00
2018-01-25T11:55:35.188Z,26336.00
2018-01-25T11:56:35.200Z,21056.00
2018-01-25T11:57:35.138Z,18176.00
2018-01-25T11:58:35.140Z,15988.00
2018-01-25T11:59:35.085Z,14992.00
2018-01-25T12:00:35.018Z,13972.00
2018-01-25T12:01:35.016Z,14000.00
2018-01-25T12:02:34.955Z,14012.00
2018-01-25T12:03:34.921Z,13880.00
2018-01-25T12:04:34.882Z,14204.00
2018-01-25T12:05:35.053Z,16136.00
2018-01-25T12:06:34.822Z,17856.00
2018-01-25T12:07:34.796Z,17232.00
2018-01-25T12:08:34.768Z,17176.00
2018-01-25T12:09:34.731Z,16576.00
2018-01-25T12:10:34.663Z,16596.00
2018-01-25T12:11:34.630Z,16252.00
2018-01-25T12:12:35.425Z,15644.00
2018-01-25T12:13:34.560Z,14804.00
2018-01-25T12:14:34.537Z,14780.00
2018-01-25T12:15:34.510Z,15184.00
2018-01-25T12:16:34.451Z,16340.00
2018-01-25T12:17:34.429Z,18176.00
2018-01-25T12:18:34.420Z,19488.00
2018-01-25T12:19:34.370Z,20128.00
2018-01-25T12:20:34.330Z,19328.00
2018-01-25T12:21:34.356Z,17648.00
2018-01-25T12:22:34.271Z,16896.00
2018-01-25T12:23:34.229Z,15616.00
2018-01-25T12:24:34.171Z,14384.00
2018-01-25T12:25:34.139Z,13144.00
2018-01-25T12:26:34.386Z,12808.00
2018-01-25T12:27:34.064Z,13088.00
2018-01-25T12:28:34.033Z,14032.00
2018-01-25T12:29:34.063Z,15024.00
2018-01-25T12:30:33.957Z,15024.00
2018-01-25T12:31:33.915Z,14384.00
2018-01-25T12:32:33.902Z,13984.00
2018-01-25T12:33:33.845Z,13604.00
2018-01-25T12:34:33.798Z,13504.00
2018-01-25T12:35:33.762Z,13772.00
2018-01-25T12:36:33.725Z,14160.00
2018-01-25T12:37:33.675Z,14516.00
2018-01-25T12:38:33.652Z,14804.00